Merrill Field Anchorage US
ICAO: PAMR
IATA:
Category: Medium
Scheduled Services:

Elevation: 137 ft
TransAlt. 18000 ft.

Airport Communications:
ANCHORAGE APP/DEP:119.1
ATIS:124.25
CTAF:126
KENAI RDO:122.2
GND:121.7
KENAI RDO:122.3
TWR:126
UNICOM:122.95

PAMR Zoom In..

If you have problems with the map follow the link
https://www.worldairports.se/pages/airport.php?
ICAO=PAMR

Runways:

(A) RW 05 length 2000 ft width 60 ft
---- / hdg 47

(B) RW 07 length 4000 ft width 100 ft
---- / hdg 71

(C) RW 16 length 2640 ft width 75 ft
---- / hdg 161

(D) RW 23 length 2000 ft width 60 ft
---- / hdg 227

(E) RW 25 length 4000 ft width 100 ft
---- / hdg 251

(F) RW 34 length 2640 ft width 75 ft
---- / hdg 341

Location; PAMR
Day. 18 / Time. 10.53 Zulu
* Altimeter: 29.87
* Temperature: -17° c. -1.4°f.
* Wind from: 020° Speed 05 kn.
Dewpoint: -21° c.
Visibility: 10 Statute Miles.
Clouds: Few 100 ft.

PAMR 181053Z 02005KT 10SM FEW001 M17/M21 A2987 RMK AO2 SLP120 T11671211 $


Wind From 020°
Speed 05 kn.

 
 
jpsmedia worldairports.se 2020   terms of use